Flight Track Log - Related Links

Times and Time Zones

All times are in EDT time to prevent confusion due to time zone crossing. See the TAM3904 flight status page for this flight to view local times or setup timezone preferences in your user account.

Time Position Orientation Groundspeed Altitude Reporting Facility
EDT Latitude Longitude Course Direction KTS MPH feet Rate Location/Type
Wed 06:37:00 AM -23.4418 -45.7130 78° East  Level Estimated
Wed 06:38:00 AM -23.4284 -45.6457 78° East  Level Estimated
Wed 06:39:00 AM -23.4149 -45.5785 78° East  Level Estimated
Wed 06:40:00 AM -23.4014 -45.5114 78° East  Level Estimated
Wed 06:41:00 AM -23.3879 -45.4442 78° East  Level Estimated
Wed 06:42:00 AM -23.3744 -45.3770 78° East  Level Estimated
Wed 06:43:00 AM -23.3608 -45.3099 78° East  Level Estimated
Wed 06:44:00 AM -23.3472 -45.2428 78° East  Level Estimated
Wed 06:45:00 AM -23.3336 -45.1756 78° East  Level Estimated
Wed 06:46:00 AM -23.3199 -45.1085 78° East  Level Estimated
Wed 06:47:00 AM -23.3062 -45.0415 77° East  Level Estimated
Wed 06:48:00 AM -23.2925 -44.9744 77° East  Level Estimated
Wed 06:49:00 AM -23.2788 -44.9073 77° East  Level Estimated
Wed 06:50:00 AM -23.2650 -44.8403 77° East  Level Estimated
Wed 06:51:00 AM -23.2512 -44.7732 77° East  Level Estimated
Wed 06:52:00 AM -23.2374 -44.7062 77° East  Level Estimated
Wed 06:53:00 AM -23.2236 -44.6392 77° East  Level Estimated
Wed 06:54:00 AM -23.2097 -44.5722 77° East  Level Estimated
Wed 06:55:00 AM -23.1958 -44.5052 77° East  Level Estimated
Wed 06:56:00 AM -23.1818 -44.4383 77° East  Level Estimated
Wed 06:57:00 AM -23.1679 -44.3713 77° East  Level Estimated
Wed 06:58:00 AM -23.1539 -44.3044 77° East  Level Estimated
Wed 06:59:00 AM -23.1399 -44.2375 77° East  Level Estimated
Wed 07:00:00 AM -23.1258 -44.1706 77° East  Level Estimated
Wed 07:01:00 AM -23.1117 -44.1037 77° East  Level Estimated
Wed 07:02:00 AM -23.0976 -44.0368 77° East  Level Estimated
Wed 07:03:00 AM -23.0835 -43.9699 77° East  Level Estimated
Wed 07:04:00 AM -23.0693 -43.9031 77° East  Level Estimated
Wed 07:05:00 AM -23.0551 -43.8362 77° East  Level Estimated
Wed 07:06:00 AM -23.0409 -43.7694 77° East  Level Estimated
Wed 07:07:00 AM -23.0266 -43.7026 77° East  Level Estimated
Wed 07:08:00 AM -23.0124 -43.6358 77° East  Level Estimated
Wed 07:09:00 AM -22.9981 -43.5690 77° East  Level Estimated
Wed 07:10:00 AM -22.9837 -43.5022 77° East  Level Estimated
Wed 07:11:00 AM -22.9694 -43.4355 77° East  Level Estimated
Wed 07:12:00 AM -22.9550 -43.3688 77° East  Level Estimated
Wed 07:13:00 AM -22.9406 -43.3020 77° East  Level Estimated
Wed 07:14:00 AM -22.9261 -43.2353 77° East  Level Estimated
Wed 07:15:00 AM -22.9116 -43.1686 77° East  Level Estimated
Wed 07:16:00 AM -22.9105 -43.1631 77° East  Level Estimated
Wed 07:17:00 AM -22.9105 -43.1631 250° West  Level Estimated
Wed 07:18:00 AM -22.9105 -43.1631 250° West  Level Estimated
Wed 07:19:00 AM -22.9105 -43.1631 250° West  Level Estimated
Wed 07:20:00 AM -22.9105 -43.1631 250° West  Level Estimated
Wed 07:21:00 AM -22.9105 -43.1631 250° West  Level Estimated
Wed 07:22:00 AM -22.9105 -43.1631 250° West  Level Estimated
Wed 07:23:00 AM -22.9105 -43.1631 250° West  Level Estimated
Wed 07:24:00 AM -22.9105 -43.1631 250° West  Level Estimated
Wed 07:25:00 AM -22.9105 -43.1631 250° West  Level Estimated
Wed 07:26:00 AM -22.9105 -43.1631 250° West  Level Estimated
Wed 07:27:00 AM -22.9105 -43.1631 250° West  Level Estimated
Wed 07:28:00 AM -22.9105 -43.1631 250° West  Level Estimated
Wed 07:29:00 AM -22.9105 -43.1631 250° West  Level Estimated
Wed 07:30:00 AM -22.9105 -43.1631 250° West  Level Estimated
Wed 07:31:00 AM -22.9105 -43.1631 250° West  Level Estimated

Login

Don't have an account? Register now (free) for customized features, flight alerts, and more!